Latest Coastal Weather Observations for Double Island Point

IDQ60701

Issued at 6:25 pm EST Monday 24 November 2014 (issued every 10 minutes, with the page automatically refreshed every 10 minutes)

About coastal observations | Map of coastal stations | Coastal observations for QLD | Marine services | Other Formats
Station Details ID: 040068 Name: DOUBLE ISLAND POINT LIGHTHOUSE Lat: -25.93 Lon: 153.19 Height: 95.64 m
Data from the previous 72 hours. | See also: Recent months at Double Island Point
Date/Time
EST
Temp

°C
Wind Pressure Rain
since 9am
mm
Weather Cloud Vis
km
Sea
Height
m
Swell
Dir
 
Speed
knots
Gust
knots
hPa Trend Height
m
Period
s
Dir
24/06:19pm 23.6 N 19 29 1013.8 - 0.0 - - - - - - -
24/06:00pm 23.8 N 22 27 1013.7 - 0.0 - - - - - - -
24/05:30pm 24.3 N 25 29 1013.1 - 0.0 - - - - - - -
24/05:00pm 25.3 N 23 27 1013.0 - 0.0 - - - - - - -
24/04:30pm 25.7 NNE 22 25 1013.0 - 0.0 - - - - - - -
24/04:00pm 26.5 NNE 22 25 1013.3 - 0.0 - - - - - - -
24/03:30pm 27.2 N 22 25 1013.5 - 0.0 - - - - - - -
24/03:00pm 27.9 N 20 23 1013.8 - 0.0 - - - - - - -
24/02:30pm 28.1 NNE 18 21 1014.1 - 0.0 - - - - - - -
24/02:00pm 28.5 N 19 21 1014.5 - 0.0 - - - - - - -
24/01:30pm 28.7 N 18 20 1014.9 - 0.0 - - - - - - -
24/01:00pm 29.0 NNE 18 20 1015.3 - 0.0 - - - - - - -
24/12:30pm 29.3 NNE 15 18 1015.7 - 0.0 - - - - - - -
24/12:00pm 29.8 NNE 11 14 1016.2 - 0.0 - - - - - - -
24/11:30am 29.6 NNE 10 13 1016.8 - 0.0 - - - - - - -
24/11:00am 29.4 NNE 8 12 1017.1 - 0.0 - - - - - - -
24/10:30am 29.2 NNE 8 10 1017.5 - 0.0 - - - - - - -
24/10:00am 28.7 N 5 9 1018.0 - 0.0 - - - - - - -
24/09:30am 28.5 N 4 7 1018.2 - 0.0 - - - - - - -
24/09:00am 27.6 NNE 7 10 1018.3 - 0.0 - - - - - - -
24/08:30am 27.1 NNE 6 9 1018.2 - 0.0 - - - - - - -
24/08:00am 26.5 N 5 9 1018.2 - 0.0 - - - - - - -
24/07:30am 25.5 N 8 10 1018.0 - 0.0 - - - - - - -
24/07:00am 25.0 NNE 8 10 1017.9 - 0.0 - - - - - - -
24/06:30am 24.5 NNE 10 12 1017.8 - 0.0 - - - - - - -
24/06:00am 24.0 NNE 9 12 1017.4 - 0.0 - - - - - - -
24/05:30am 22.8 N 7 11 1017.4 - 0.0 - - - - - - -
24/05:00am 22.3 N 5 12 1017.1 - 0.0 - - - - - - -
24/04:30am 22.4 N 5 10 1017.0 - 0.0 - - - - - - -
24/04:00am 22.5 N 11 17 1016.6 - 0.0 - - - - - - -
24/03:30am 22.6 N 14 18 1016.4 - 0.0 - - - - - - -
24/03:00am 22.8 NNE 17 19 1016.4 - 0.0 - - - - - - -
24/02:30am 22.8 NNE 19 22 1016.2 - 0.0 - - - - - - -
24/02:00am 23.0 NNE 19 22 1016.4 - 0.0 - - - - - - -
24/01:30am 23.1 N 21 24 1016.4 - 0.0 - - - - - - -
24/01:00am 23.0 NNE 19 22 1016.6 - 0.0 - - - - - - -
24/12:30am 23.2 N 18 21 1016.7 - 0.0 - - - - - - -
24/12:00am 23.2 N 11 17 1017.0 - 0.0 - - - - - - -
 
Date/Time
EST
Temp

°C
Wind Pressure Rain
since 9am
mm
Weather Cloud Vis
km
Sea
Height
m
Swell
Dir
 
Speed
knots
Gust
knots
hPa Trend Height
m
Period
s
Dir
23/11:30pm 23.1 N 9 15 1017.1 - 0.0 - - - - - - -
23/11:00pm 23.2 N 8 13 1017.2 - 0.0 - - - - - - -
23/10:30pm 23.2 N 10 17 1017.0 - 0.0 - - - - - - -
23/10:00pm 23.3 N 9 16 1017.1 - 0.0 - - - - - - -
23/09:30pm 23.4 N 10 16 1017.1 - 0.0 - - - - - - -
23/09:00pm 23.5 N 10 17 1016.8 - 0.0 - - - - - - -
23/08:30pm 23.5 N 10 17 1016.4 - 0.0 - - - - - - -
23/08:00pm 23.6 N 11 17 1016.2 - 0.0 - - - - - - -
23/07:30pm 23.7 N 12 18 1015.7 - 0.0 - - - - - - -
23/07:00pm 23.9 N 15 20 1015.4 - 0.0 - - - - - - -
23/06:30pm 24.0 N 16 22 1015.2 - 0.0 - - - - - - -
23/06:00pm 24.4 N 18 22 1014.8 - 0.0 - - - - - - -
23/05:30pm 25.6 NNE 18 21 1014.6 - 0.0 - - - - - - -
23/05:00pm 26.3 NNE 16 19 1014.6 - 0.0 - - - - - - -
23/04:30pm 27.0 NNE 16 19 1014.7 - 0.0 - - - - - - -
23/04:00pm 27.8 NNE 12 17 1014.9 - 0.0 - - - - - - -
23/03:30pm 28.3 NNE 11 15 1015.1 - 0.0 - - - - - - -
23/03:00pm 28.9 NNE 13 16 1015.3 - 0.0 - - - - - - -
23/02:30pm 29.3 NNE 13 17 1015.6 - 0.0 - - - - - - -
23/02:00pm 29.4 NNE 13 16 1015.7 - 0.0 - - - - - - -
23/01:30pm 30.6 NNE 8 13 1016.4 - 0.0 - - - - - - -
23/01:00pm 29.7 NNE 7 11 1016.6 - 0.0 - - - - - - -
23/12:30pm 29.5 NE 8 15 1017.0 - 0.0 - - - - - - -
23/12:00pm 29.7 NE 8 11 1017.3 - 0.0 - - - - - - -
23/11:30am 30.4 NNE 6 10 1017.8 - 0.0 - - - - - - -
23/11:00am 29.5 NNE 7 11 1018.1 - 0.0 - - - - - - -
23/10:30am 28.9 NNE 8 11 1018.2 - 0.0 - - - - - - -
23/10:00am 28.4 NNE 11 13 1018.4 - 0.0 - - - - - - -
23/09:30am 27.6 N 11 14 1018.5 - 0.0 - - - - - - -
23/09:00am 27.5 N 5 8 1018.3 - 0.0 - - - - - - -
23/08:30am 27.1 N 5 7 1018.2 - 0.0 - - - - - - -
23/08:00am 26.5 N 5 8 1018.2 - 0.0 - - - - - - -
23/07:30am 26.0 N 7 13 1018.1 - 0.0 - - - - - - -
23/07:00am 25.1 N 6 10 1017.9 - 0.0 - - - - - - -
23/06:30am 24.7 N 9 16 1017.6 - 0.0 - - - - - - -
23/06:00am 23.7 N 12 17 1017.0 - 0.0 - - - - - - -
23/05:30am 23.1 N 10 16 1016.6 - 0.0 - - - - - - -
23/05:00am 22.7 N 9 14 1016.0 - 0.0 - - - - - - -
23/04:30am 22.6 N 5 10 1015.8 - 0.0 - - - - - - -
23/04:00am 22.6 N 5 9 1015.6 - 0.0 - - - - - - -
23/03:30am 22.7 N 5 9 1015.2 - 0.0 - - - - - - -
23/03:00am 22.7 N 6 10 1014.9 - 0.0 - - - - - - -
23/02:30am 22.7 N 5 8 1014.9 - 0.0 - - - - - - -
23/02:00am 22.9 N 5 9 1015.0 - 0.0 - - - - - - -
23/01:30am 22.9 N 6 9 1015.2 - 0.0 - - - - - - -
23/01:00am 23.0 N 6 9 1015.4 - 0.0 - - - - - - -
23/12:30am 23.0 N 6 9 1015.6 - 0.0 - - - - - - -
23/12:00am 23.1 N 7 13 1015.7 - 0.0 - - - - - - -
 
Date/Time
EST
Temp

°C
Wind Pressure Rain
since 9am
mm
Weather Cloud Vis
km
Sea
Height
m
Swell
Dir
 
Speed
knots
Gust
knots
hPa Trend Height
m
Period
s
Dir
22/11:30pm 23.2 N 9 16 1016.0 - 0.0 - - - - - - -
22/11:00pm 23.4 N 7 11 1016.2 - 0.0 - - - - - - -
22/10:30pm 23.5 N 9 15 1016.0 - 0.0 - - - - - - -
22/10:00pm 23.6 N 7 12 1016.2 - 0.0 - - - - - - -
22/09:30pm 23.7 N 6 10 1016.1 - 0.0 - - - - - - -
22/09:00pm 23.9 N 5 8 1015.9 - 0.0 - - - - - - -
22/08:30pm 23.9 N 5 8 1015.5 - 0.0 - - - - - - -
22/08:00pm 24.0 N 5 8 1014.9 - 0.0 - - - - - - -
22/07:30pm 24.1 N 7 12 1014.3 - 0.0 - - - - - - -
22/07:00pm 24.2 N 9 17 1014.0 - 0.0 - - - - - - -
22/06:30pm 24.3 N 11 20 1013.4 - 0.0 - - - - - - -
22/06:00pm 24.4 N 11 19 1013.0 - 0.0 - - - - - - -
22/05:30pm 24.9 N 12 25 1012.7 - 0.0 - - - - - - -
22/05:00pm 25.7 N 16 27 1012.3 - 0.0 - - - - - - -
22/04:32pm 26.2 N 18 28 1012.2 - 0.0 - - - - - - -
22/04:30pm 26.1 N 19 28 1012.2 - 0.0 - - - - - - -
22/04:00pm 26.3 N 17 27 1012.0 - 0.0 - - - - - - -
22/03:30pm 26.6 N 21 32 1012.2 - 0.0 - - - - - - -
22/03:19pm 27.0 N 21 31 1012.3 - 0.0 - - - - - - -
22/03:00pm 27.0 N 25 31 1012.5 - 0.0 - - - - - - -
22/02:30pm 27.5 N 24 29 1012.8 - 0.0 - - - - - - -
22/02:00pm 27.8 N 21 27 1013.3 - 0.0 - - - - - - -
22/01:30pm 27.5 N 21 27 1013.5 - 0.0 - - - - - - -
22/01:00pm 27.6 N 17 24 1013.8 - 0.0 - - - - - - -
22/12:30pm 27.7 N 17 26 1014.1 - 0.0 - - - - - - -
22/12:12pm 27.8 N 15 25 1014.1 - 0.0 - - - - - - -
22/12:00pm 27.8 N 20 27 1014.3 - 0.0 - - - - - - -
22/11:30am 27.3 N 19 27 1014.8 - 0.0 - - - - - - -
22/11:24am 27.5 N 17 27 1014.9 - 0.0 - - - - - - -
22/11:00am 27.1 N 15 24 1015.3 - 0.0 - - - - - - -
22/10:30am 27.3 N 13 21 1015.6 - 0.0 - - - - - - -
22/10:00am 27.9 N 11 20 1015.8 - 0.0 - - - - - - -
22/09:30am 27.1 N 11 19 1015.7 - 0.0 - - - - - - -
22/09:00am 26.8 N 9 16 1015.6 - 0.0 - - - - - - -
22/08:30am 26.5 N 8 15 1015.6 - 0.0 - - - - - - -
22/08:00am 26.5 N 7 11 1015.9 - 0.0 - - - - - - -
22/07:30am 26.0 N 6 10 1015.8 - 0.0 - - - - - - -
22/07:00am 25.4 N 6 10 1015.5 - 0.0 - - - - - - -
22/06:30am 24.3 N 6 10 1015.3 - 0.0 - - - - - - -
22/06:00am 24.0 N 5 7 1015.0 - 0.0 - - - - - - -
22/05:30am 23.7 NNW 5 10 1014.7 - 0.0 - - - - - - -
22/05:00am 23.5 N 5 8 1014.4 - 0.0 - - - - - - -
22/04:30am 23.6 N 5 10 1014.0 - 0.0 - - - - - - -
22/04:00am 23.5 N 7 11 1013.6 - 0.0 - - - - - - -
22/03:30am 23.5 N 6 9 1013.3 - 0.0 - - - - - - -
22/03:00am 23.4 N 7 12 1013.0 - 0.0 - - - - - - -
22/02:30am 23.4 N 7 10 1013.0 - 0.0 - - - - - - -
22/02:00am 23.4 N 6 9 1012.8 - 0.0 - - - - - - -
22/01:30am 23.4 N 6 9 1013.0 - 0.0 - - - - - - -
22/01:00am 23.4 N 6 10 1013.3 - 0.0 - - - - - - -
22/12:30am 23.4 N 7 9 1013.4 - 0.0 - - - - - - -
22/12:00am 23.5 N 9 14 1014.0 - 0.0 - - - - - - -
 
Date/Time
EST
Temp

°C
Wind Pressure Rain
since 9am
mm
Weather Cloud Vis
km
Sea
Height
m
Swell
Dir
 
Speed
knots
Gust
knots
hPa Trend Height
m
Period
s
Dir
21/11:30pm 23.7 N 10 16 1014.1 - 0.0 - - - - - - -
21/11:00pm 23.9 N 7 11 1014.5 - 0.0 - - - - - - -
21/10:30pm 23.8 N 7 10 1014.4 - 0.0 - - - - - - -
21/10:00pm 23.9 N 7 11 1014.7 - 0.0 - - - - - - -
21/09:30pm 23.9 N 10 14 1014.1 - 0.0 - - - - - - -
21/09:00pm 23.9 N 10 18 1013.8 - 0.0 - - - - - - -
21/08:30pm 24.0 N 8 13 1013.7 - 0.0 - - - - - - -
21/08:00pm 24.0 N 8 12 1013.7 - 0.0 - - - - - - -
21/07:30pm 24.1 N 11 19 1013.2 - 0.0 - - - - - - -
21/07:00pm 24.2 N 11 22 1013.0 - 0.0 - - - - - - -
21/06:30pm 24.3 N 10 19 1012.9 - 0.0 - - - - - - -

Other Formats:

Comma delimited format used in spreadsheet applications
http://www.bom.gov.au/fwo/IDQ60701/IDQ60701.94584.axf

JavaScript Object Notation format (JSON) in row-major order
http://www.bom.gov.au/fwo/IDQ60701/IDQ60701.94584.json